Terminal Aerodrome Forecast
Issued by NWS

Home | Current Version | Previous Version | Text Only | Print | Product List | Glossary On
Versions: 1 2 3 4 5 6 7 8 9 10 11 12 13 14 15 16 17 18 19 20 21 22 23 24 25
000
FTUS43 KGRB 181100
TAFATW
TAF
KATW 181139Z 1812/1912 33005KT P6SM OVC015
     FM181900 35005KT P6SM BKN020
     FM182300 35004KT P6SM SCT025
     FM190300 33004KT P6SM BKN150=

USA.gov is the U.S. government's official web portal to all federal, state and local government web resources and services.